createdAt,value
2023-01-25T00:03:06.774Z,127.20
2023-01-25T00:06:34.114Z,121.30
2023-01-25T00:10:01.757Z,116.20
2023-01-25T00:13:28.910Z,110.00
2023-01-25T00:16:56.110Z,108.80
2023-01-25T00:20:23.563Z,110.80
2023-01-25T00:23:50.891Z,111.20
2023-01-25T00:27:18.051Z,107.20
2023-01-25T00:30:45.307Z,104.50
2023-01-25T00:34:45.453Z,110.40
2023-01-25T00:38:29.928Z,113.10
2023-01-25T00:41:57.210Z,146.10
2023-01-25T00:45:24.209Z,133.00
2023-01-25T00:48:54.136Z,105.00
2023-01-25T00:52:22.627Z,99.50
2023-01-25T00:55:55.997Z,111.00
2023-01-25T00:59:23.368Z,110.40
2023-01-25T01:02:50.751Z,114.60
2023-01-25T01:06:18.417Z,107.90
2023-01-25T01:09:45.904Z,104.50
2023-01-25T01:13:13.230Z,95.80
2023-01-25T01:16:42.447Z,104.30
2023-01-25T01:20:12.186Z,100.10
2023-01-25T01:23:39.991Z,98.20
2023-01-25T01:27:07.637Z,90.40
2023-01-25T01:30:34.530Z,88.70
2023-01-25T01:34:02.012Z,81.40
2023-01-25T01:37:29.330Z,89.70
2023-01-25T01:40:56.255Z,90.40
2023-01-25T01:44:37.478Z,84.90
2023-01-25T01:48:05.007Z,94.40
2023-01-25T01:51:42.236Z,89.20
2023-01-25T01:55:18.163Z,85.60
2023-01-25T01:58:46.515Z,74.00
2023-01-25T02:02:13.602Z,77.60
2023-01-25T02:05:48.710Z,83.20
2023-01-25T02:09:19.795Z,75.40
2023-01-25T02:12:49.215Z,70.70
2023-01-25T02:16:20.901Z,76.90
2023-01-25T02:19:55.556Z,71.40
2023-01-25T02:23:31.565Z,74.60
2023-01-25T02:26:59.138Z,69.00
2023-01-25T02:30:28.226Z,71.30
2023-01-25T02:33:55.710Z,69.40
2023-01-25T02:37:22.971Z,65.90
2023-01-25T02:40:57.068Z,73.90
2023-01-25T02:44:27.915Z,63.50
2023-01-25T02:47:56.480Z,70.00
2023-01-25T02:51:25.706Z,65.60
2023-01-25T02:54:52.987Z,71.40
2023-01-25T02:58:20.295Z,71.50
2023-01-25T03:01:48.406Z,69.00
2023-01-25T03:05:16.428Z,69.50
2023-01-25T03:08:44.051Z,71.10
2023-01-25T03:12:11.487Z,68.90
2023-01-25T03:15:39.297Z,68.70
2023-01-25T03:19:06.578Z,70.50
2023-01-25T03:22:33.876Z,69.60
2023-01-25T03:26:10.539Z,73.30
2023-01-25T03:29:40.057Z,72.90
2023-01-25T03:33:10.843Z,75.40
2023-01-25T03:36:37.802Z,79.60
2023-01-25T03:40:05.753Z,78.30
2023-01-25T03:43:33.593Z,78.40
2023-01-25T03:47:01.643Z,80.90
2023-01-25T03:50:29.135Z,78.50
2023-01-25T03:53:56.017Z,81.90
2023-01-25T03:57:23.168Z,82.30
2023-01-25T04:00:55.731Z,80.20
2023-01-25T04:04:23.315Z,96.60
2023-01-25T04:07:51.136Z,79.80
2023-01-25T04:11:20.883Z,94.50
2023-01-25T04:14:48.742Z,92.30
2023-01-25T04:18:21.295Z,86.70
2023-01-25T04:21:48.357Z,94.80
2023-01-25T04:25:15.996Z,87.50
2023-01-25T04:28:47.664Z,88.30
2023-01-25T04:32:14.749Z,89.40
2023-01-25T04:35:42.139Z,84.30
2023-01-25T04:39:09.296Z,111.50
2023-01-25T04:42:37.249Z,78.70
2023-01-25T04:46:05.581Z,74.60
2023-01-25T04:49:33.196Z,70.60
2023-01-25T04:53:00.284Z,93.60
2023-01-25T04:56:27.988Z,67.50
2023-01-25T04:59:55.974Z,113.60
2023-01-25T05:03:23.493Z,90.90
2023-01-25T05:06:50.485Z,77.30
2023-01-25T05:10:17.904Z,79.70
2023-01-25T05:14:04.814Z,65.70
2023-01-25T05:17:33.305Z,72.10
2023-01-25T05:21:00.451Z,66.10
2023-01-25T05:24:29.083Z,71.30
2023-01-25T05:27:57.186Z,98.80
2023-01-25T05:31:41.371Z,69.20
2023-01-25T05:35:11.544Z,65.20
2023-01-25T05:38:39.085Z,63.40
2023-01-25T05:42:13.834Z,58.60
2023-01-25T05:45:41.542Z,60.90
2023-01-25T05:49:09.159Z,54.60
2023-01-25T05:52:36.235Z,55.40
2023-01-25T05:56:10.260Z,50.30
2023-01-25T05:59:37.369Z,52.70
2023-01-25T06:03:05.652Z,45.30
2023-01-25T06:06:35.468Z,47.60
2023-01-25T06:10:03.953Z,46.00
2023-01-25T06:13:31.495Z,44.70
2023-01-25T06:16:58.820Z,46.30
2023-01-25T06:20:26.180Z,46.80
2023-01-25T06:24:05.589Z,56.50
2023-01-25T06:27:32.594Z,56.50
2023-01-25T06:31:04.548Z,39.90
2023-01-25T06:34:31.975Z,38.50
2023-01-25T06:37:59.843Z,38.10
2023-01-25T06:41:26.813Z,36.70
2023-01-25T06:44:54.089Z,40.20
2023-01-25T06:48:20.981Z,37.80
2023-01-25T06:51:47.861Z,29.80
2023-01-25T06:55:14.859Z,34.70
2023-01-25T06:58:42.214Z,31.10
2023-01-25T07:02:10.772Z,56.50
2023-01-25T07:05:37.840Z,40.40
2023-01-25T07:09:10.206Z,69.10
2023-01-25T07:12:37.106Z,42.60
2023-01-25T07:16:05.872Z,34.70
2023-01-25T07:19:32.772Z,35.80
2023-01-25T07:23:02.104Z,40.90
2023-01-25T07:26:29.336Z,41.90
2023-01-25T07:29:56.143Z,33.80
2023-01-25T07:33:23.033Z,33.20
2023-01-25T07:36:49.938Z,31.30
2023-01-25T07:40:18.214Z,29.10
2023-01-25T07:43:45.055Z,27.70
2023-01-25T07:47:12.000Z,24.00
2023-01-25T07:50:39.532Z,29.00
2023-01-25T07:54:07.745Z,26.90
2023-01-25T07:57:35.129Z,27.20
2023-01-25T08:01:09.080Z,28.40
2023-01-25T08:04:36.803Z,28.40
2023-01-25T08:08:03.960Z,30.50
2023-01-25T08:11:32.860Z,31.20
2023-01-25T08:14:59.845Z,25.50
2023-01-25T08:18:26.697Z,29.70
2023-01-25T08:21:53.824Z,29.00
2023-01-25T08:25:21.111Z,26.20
2023-01-25T08:28:48.315Z,27.60
2023-01-25T08:32:16.234Z,27.40
2023-01-25T08:35:43.029Z,24.60
2023-01-25T08:39:12.035Z,31.20
2023-01-25T08:42:39.163Z,26.60
2023-01-25T08:46:06.897Z,24.30
2023-01-25T08:49:35.430Z,26.40
2023-01-25T08:53:02.211Z,30.40
2023-01-25T08:56:29.051Z,31.60
2023-01-25T08:59:55.928Z,31.00
2023-01-25T09:03:22.749Z,30.90
2023-01-25T09:06:49.693Z,28.00
2023-01-25T09:10:17.573Z,31.80
2023-01-25T09:13:44.724Z,32.80
2023-01-25T09:17:12.105Z,27.70
2023-01-25T09:20:41.011Z,27.20
2023-01-25T09:24:09.725Z,31.70
2023-01-25T09:27:37.121Z,28.60
2023-01-25T09:31:21.136Z,39.30
2023-01-25T09:35:02.320Z,32.20
2023-01-25T09:38:29.879Z,36.60
2023-01-25T09:42:15.701Z,32.70
2023-01-25T09:45:42.688Z,33.00
2023-01-25T09:49:22.620Z,28.70
2023-01-25T09:53:03.748Z,33.60
2023-01-25T09:56:35.115Z,31.80
2023-01-25T10:00:08.455Z,27.30
2023-01-25T10:03:46.945Z,28.10
2023-01-25T10:07:25.623Z,24.30
2023-01-25T10:11:00.018Z,30.20
2023-01-25T10:14:27.933Z,29.60
2023-01-25T10:18:02.891Z,32.50
2023-01-25T10:21:36.493Z,27.20
2023-01-25T10:25:33.969Z,29.60
2023-01-25T10:29:10.068Z,31.90
2023-01-25T10:32:39.737Z,28.90
2023-01-25T10:36:18.168Z,29.80
2023-01-25T10:40:01.660Z,28.90
2023-01-25T10:43:28.691Z,30.70
2023-01-25T10:47:07.253Z,32.70
2023-01-25T10:50:53.745Z,32.20
2023-01-25T10:54:23.420Z,28.80
2023-01-25T10:57:52.739Z,30.10
2023-01-25T11:01:32.426Z,30.80
2023-01-25T11:04:59.425Z,32.20
2023-01-25T11:08:33.548Z,27.50
2023-01-25T11:12:02.123Z,30.10
2023-01-25T11:15:29.321Z,34.80
2023-01-25T11:18:57.886Z,32.50
2023-01-25T11:22:26.153Z,28.10
2023-01-25T11:25:53.866Z,33.30
2023-01-25T11:29:22.592Z,34.80
2023-01-25T11:32:49.748Z,36.20
2023-01-25T11:36:36.476Z,34.10
2023-01-25T11:40:15.960Z,30.70
2023-01-25T11:44:05.540Z,33.60
2023-01-25T11:47:48.913Z,38.20
2023-01-25T11:51:25.001Z,38.10
2023-01-25T11:55:05.644Z,31.70
2023-01-25T11:58:49.499Z,34.60
2023-01-25T12:02:41.287Z,38.30
2023-01-25T12:06:14.789Z,37.60
2023-01-25T12:09:56.740Z,37.30
2023-01-25T12:13:33.967Z,37.60
2023-01-25T12:17:14.575Z,39.60
2023-01-25T12:21:03.057Z,39.10
2023-01-25T12:24:45.646Z,36.10
2023-01-25T12:28:21.235Z,59.20
2023-01-25T12:31:55.821Z,42.50
2023-01-25T12:35:32.921Z,48.40
2023-01-25T12:39:05.044Z,61.90
2023-01-25T12:42:37.441Z,53.60
2023-01-25T12:46:10.486Z,41.20
2023-01-25T12:49:44.521Z,42.00
2023-01-25T12:53:18.847Z,63.60
2023-01-25T12:56:53.512Z,50.80
2023-01-25T13:00:31.870Z,46.60
2023-01-25T13:04:15.701Z,43.40
2023-01-25T13:07:54.738Z,45.00
2023-01-25T13:11:24.967Z,47.20
2023-01-25T13:14:52.153Z,46.70
2023-01-25T13:18:41.970Z,44.80
2023-01-25T13:22:10.871Z,49.40
2023-01-25T13:25:37.863Z,43.30
2023-01-25T13:29:05.098Z,48.70
2023-01-25T13:32:59.209Z,54.00
2023-01-25T13:36:47.990Z,47.10
2023-01-25T13:40:32.582Z,45.90
2023-01-25T13:44:22.955Z,147.10
2023-01-25T13:48:04.831Z,249.30
2023-01-25T13:51:36.835Z,112.00
2023-01-25T13:55:17.655Z,71.70
2023-01-25T13:58:49.344Z,120.50
2023-01-25T14:02:20.680Z,138.70
2023-01-25T14:05:54.603Z,81.10
2023-01-25T14:09:22.847Z,146.30
2023-01-25T14:12:50.663Z,217.70
2023-01-25T14:16:20.804Z,290.60
2023-01-25T14:19:50.901Z,243.60
2023-01-25T14:23:26.384Z,247.60
2023-01-25T14:26:54.069Z,133.00
2023-01-25T14:30:24.245Z,73.00
2023-01-25T14:33:57.762Z,62.20
2023-01-25T14:37:25.002Z,59.20
2023-01-25T14:40:54.410Z,58.50
2023-01-25T14:44:22.369Z,55.50
2023-01-25T14:47:59.122Z,63.00
2023-01-25T14:51:31.175Z,72.50
2023-01-25T14:55:00.389Z,70.70
2023-01-25T14:58:31.685Z,104.60
2023-01-25T15:02:00.897Z,80.10
2023-01-25T15:05:29.179Z,79.50
2023-01-25T15:08:56.710Z,77.40
2023-01-25T15:12:40.131Z,74.40
2023-01-25T15:16:07.857Z,85.00
2023-01-25T15:19:35.339Z,103.00
2023-01-25T15:23:07.460Z,146.50
2023-01-25T15:26:36.961Z,114.00
2023-01-25T15:30:05.035Z,113.40
2023-01-25T15:33:34.019Z,120.20
2023-01-25T15:37:01.317Z,89.30
2023-01-25T15:40:28.426Z,86.10
2023-01-25T15:43:55.470Z,79.90
2023-01-25T15:47:22.612Z,67.70
2023-01-25T15:50:49.921Z,71.20
2023-01-25T15:54:17.062Z,69.00
2023-01-25T15:57:46.980Z,63.90
2023-01-25T16:01:14.591Z,68.20
2023-01-25T16:04:42.223Z,67.30
2023-01-25T16:08:13.757Z,86.60
2023-01-25T16:11:40.979Z,75.00
2023-01-25T16:15:10.321Z,78.00
2023-01-25T16:18:37.343Z,66.90
2023-01-25T16:22:04.640Z,73.70
2023-01-25T16:25:32.112Z,68.60
2023-01-25T16:28:59.259Z,71.50
2023-01-25T16:32:26.526Z,73.50
2023-01-25T16:36:15.502Z,70.90
2023-01-25T16:39:42.565Z,67.90
2023-01-25T16:43:09.601Z,84.90
2023-01-25T16:46:36.563Z,80.50
2023-01-25T16:50:03.573Z,82.90
2023-01-25T16:53:30.615Z,83.10
2023-01-25T16:56:58.963Z,82.80
2023-01-25T17:00:27.578Z,84.40
2023-01-25T17:03:55.637Z,97.90
2023-01-25T17:07:22.912Z,77.60
2023-01-25T17:10:51.023Z,85.10
2023-01-25T17:14:20.471Z,92.00
2023-01-25T17:17:48.312Z,96.00
2023-01-25T17:21:17.790Z,85.10
2023-01-25T17:28:10.974Z,91.10
2023-01-25T17:31:39.792Z,87.00
2023-01-25T17:35:08.403Z,98.40
2023-01-25T17:38:35.505Z,95.70
2023-01-25T17:42:02.832Z,85.70
2023-01-25T17:58:46.729Z,85.20
2023-01-25T18:02:14.573Z,81.70
2023-01-25T18:05:42.218Z,83.60
2023-01-25T18:09:09.999Z,78.10
2023-01-25T18:12:37.952Z,76.20
2023-01-25T18:16:05.764Z,81.20
2023-01-25T18:19:33.395Z,85.20
2023-01-25T18:23:00.712Z,87.60
2023-01-25T18:26:30.543Z,79.50
2023-01-25T18:30:04.241Z,79.10
2023-01-25T18:33:33.309Z,79.70
2023-01-25T18:37:01.247Z,89.40
2023-01-25T18:40:30.411Z,92.30
2023-01-25T18:43:58.740Z,87.20
2023-01-25T18:47:27.819Z,110.10
2023-01-25T18:50:55.433Z,97.00
2023-01-25T18:54:23.708Z,87.50
2023-01-25T18:57:51.701Z,85.90
2023-01-25T19:01:21.231Z,84.10
2023-01-25T19:04:49.973Z,85.60
2023-01-25T19:08:19.359Z,91.60
2023-01-25T19:11:47.783Z,81.90
2023-01-25T19:15:17.023Z,90.10
2023-01-25T19:18:47.191Z,83.50
2023-01-25T19:22:16.374Z,97.30
2023-01-25T19:29:11.423Z,88.20
2023-01-25T19:32:40.224Z,90.80
2023-01-25T19:36:15.454Z,92.60
2023-01-25T19:39:44.904Z,90.10
2023-01-25T19:43:15.187Z,93.40
2023-01-25T19:46:44.887Z,109.50
2023-01-25T19:53:46.432Z,130.60
2023-01-25T19:57:17.299Z,124.90
2023-01-25T20:00:46.753Z,120.30
2023-01-25T20:04:19.638Z,128.30
2023-01-25T20:07:48.376Z,125.50
2023-01-25T20:11:19.759Z,123.80
2023-01-25T20:14:48.591Z,133.80
2023-01-25T20:18:17.527Z,118.90
2023-01-25T20:21:47.386Z,129.30
2023-01-25T20:25:17.192Z,142.70
2023-01-25T20:28:49.425Z,149.70
2023-01-25T20:32:32.046Z,149.90
2023-01-25T20:36:05.650Z,137.10
2023-01-25T20:39:34.983Z,143.90
2023-01-25T20:46:34.515Z,153.80
2023-01-25T20:50:04.132Z,140.20
2023-01-25T20:53:35.409Z,130.90
2023-01-25T20:57:04.835Z,134.60
2023-01-25T21:00:34.007Z,123.60
2023-01-25T21:04:03.875Z,119.50
2023-01-25T21:07:33.302Z,123.80
2023-01-25T21:11:03.533Z,111.70
2023-01-25T21:14:31.452Z,115.20
2023-01-25T21:17:58.953Z,114.00
2023-01-25T21:21:29.539Z,136.80
2023-01-25T21:24:57.121Z,126.80
2023-01-25T21:28:24.444Z,139.10
2023-01-25T21:31:53.290Z,132.90
2023-01-25T21:35:20.491Z,137.30
2023-01-25T21:38:48.731Z,140.60
2023-01-25T21:42:15.907Z,132.60
2023-01-25T21:46:01.065Z,134.00
2023-01-25T21:49:45.604Z,129.10
2023-01-25T21:53:12.954Z,123.30
2023-01-25T21:56:39.912Z,127.00
2023-01-25T22:00:09.079Z,114.10
2023-01-25T22:03:36.315Z,133.40
2023-01-25T22:07:03.481Z,121.70
2023-01-25T22:10:30.513Z,126.00
2023-01-25T22:13:58.237Z,126.70
2023-01-25T22:17:25.695Z,142.40
2023-01-25T22:20:59.788Z,149.50
2023-01-25T22:24:27.288Z,156.20
2023-01-25T22:28:00.998Z,141.90
2023-01-25T22:31:29.708Z,131.10
2023-01-25T22:34:57.132Z,120.00
2023-01-25T22:38:24.536Z,125.70
2023-01-25T22:41:51.494Z,123.20
2023-01-25T22:45:18.620Z,140.10
2023-01-25T22:48:45.768Z,146.70
2023-01-25T22:52:12.743Z,125.10
2023-01-25T22:55:39.784Z,135.30
2023-01-25T22:59:08.148Z,142.10
2023-01-25T23:02:37.164Z,131.80
2023-01-25T23:06:07.915Z,128.60
2023-01-25T23:09:34.951Z,116.80
2023-01-25T23:13:02.131Z,139.20
2023-01-25T23:16:29.105Z,131.80
2023-01-25T23:19:56.224Z,137.70
2023-01-25T23:23:23.429Z,130.40
2023-01-25T23:26:50.387Z,125.60
2023-01-25T23:30:18.643Z,130.80
2023-01-25T23:33:45.773Z,150.60
2023-01-25T23:37:14.911Z,144.30
2023-01-25T23:40:43.752Z,137.30
2023-01-25T23:44:10.711Z,133.30
2023-01-25T23:47:38.240Z,137.80
2023-01-25T23:51:05.886Z,132.10
2023-01-25T23:54:33.165Z,137.10
2023-01-25T23:58:00.190Z,125.10
